This is the latest recevied weather packets stored in our database for station/object OK2ILA-6. If no packets are shown the sender has not sent any weather packets the latest 10 day(s).
| Time | Temp. | Humidity | Pressure | Rain* | Wind** | Luminosity | Snow |
|---|---|---|---|---|---|---|---|
| 1777916403 | 21.67° C | 40% | 1011.4 hPa | - | - | - | - |
| 1777915802 | 21.67° C | 39% | 1011.6 hPa | - | - | - | - |
| 1777915203 | 22.22° C | 40% | 1011.5 hPa | - | - | - | - |
| 1777914603 | 22.22° C | 38% | 1011.5 hPa | - | - | - | - |
| 1777914003 | 22.78° C | 38% | 1011.4 hPa | - | - | - | - |
| 1777913402 | 23.33° C | 38% | 1011.5 hPa | - | - | - | - |
| 1777912803 | 23.89° C | 38% | 1011.6 hPa | - | - | - | - |
| 1777912203 | 24.44° C | 36% | 1011.6 hPa | - | - | - | - |
| 1777911603 | 24.44° C | 37% | 1011.6 hPa | - | - | - | - |
| 1777911002 | 24.44° C | 36% | 1011.5 hPa | - | - | - | - |
| 1777910402 | 25° C | 34% | 1011.6 hPa | - | - | - | - |
| 1777909803 | 25° C | 36% | 1011.6 hPa | - | - | - | - |
| 1777909203 | 24.44° C | 38% | 1011.8 hPa | - | - | - | - |
| 1777908603 | 24.44° C | 38% | 1011.8 hPa | - | - | - | - |
| 1777908002 | 25° C | 38% | 1011.7 hPa | - | - | - | - |
| 1777907402 | 25° C | 37% | 1011.9 hPa | - | - | - | - |
| 1777906803 | 24.44° C | 40% | 1012 hPa | - | - | - | - |
| 1777906203 | 24.44° C | 38% | 1011.9 hPa | - | - | - | - |
| 1777905603 | 25.56° C | 36% | 1012 hPa | - | - | - | - |
| 1777905003 | 25.56° C | 36% | 1011.9 hPa | - | - | - | - |
| 1777904403 | 25.56° C | 36% | 1012 hPa | - | - | - | - |
| 1777903803 | 25.56° C | 36% | 1012.1 hPa | - | - | - | - |
| 1777903203 | 25.56° C | 36% | 1012.4 hPa | - | - | - | - |
| 1777902003 | 25.56° C | 37% | 1012.3 hPa | - | - | - | - |
| 1777901403 | 25.56° C | 36% | 1012.4 hPa | - | - | - | - |
* Rain since midnight (hover to see other rain measurements)
** Current wind speed in m/s (hover to see current wind gust speed)